createdAt,value
2023-03-13T00:01:07.825Z,2.70
2023-03-13T00:04:28.326Z,3.10
2023-03-13T00:07:02.419Z,3.13
2023-03-13T00:09:34.894Z,3.37
2023-03-13T00:12:23.823Z,2.93
2023-03-13T00:15:22.814Z,3.40
2023-03-13T00:17:55.137Z,3.33
2023-03-13T00:20:40.688Z,3.60
2023-03-13T00:23:13.904Z,3.53
2023-03-13T00:26:00.140Z,3.20
2023-03-13T00:28:57.343Z,3.00
2023-03-13T00:31:43.770Z,3.33
2023-03-13T00:34:31.128Z,3.40
2023-03-13T00:37:33.582Z,3.00
2023-03-13T00:40:19.436Z,3.60
2023-03-13T00:42:52.692Z,2.90
2023-03-13T00:45:43.258Z,2.90
2023-03-13T00:48:48.279Z,3.27
2023-03-13T00:51:45.051Z,3.10
2023-03-13T00:54:18.417Z,2.60
2023-03-13T00:57:03.790Z,3.27
2023-03-13T01:00:02.479Z,3.23
2023-03-13T01:03:01.892Z,2.50
2023-03-13T01:05:35.526Z,2.50
2023-03-13T01:08:28.583Z,3.07
2023-03-13T01:11:18.384Z,2.90
2023-03-13T01:13:59.896Z,2.73
2023-03-13T01:16:49.283Z,2.77
2023-03-13T01:19:33.837Z,2.80
2023-03-13T01:22:04.556Z,2.60
2023-03-13T01:25:03.848Z,2.47
2023-03-13T01:27:54.291Z,3.00
2023-03-13T01:30:35.349Z,3.00
2023-03-13T01:33:06.138Z,2.60
2023-03-13T01:35:37.962Z,2.50
2023-03-13T01:38:23.905Z,3.03
2023-03-13T01:40:56.489Z,2.97
2023-03-13T01:43:55.901Z,2.60
2023-03-13T01:46:29.937Z,3.03
2023-03-13T01:49:09.860Z,3.13
2023-03-13T01:52:15.844Z,2.47
2023-03-13T01:55:04.413Z,2.63
2023-03-13T01:57:54.097Z,2.53
2023-03-13T02:00:37.781Z,2.30
2023-03-13T02:03:25.550Z,2.50
2023-03-13T02:06:06.227Z,2.83
2023-03-13T02:08:49.907Z,3.10
2023-03-13T02:11:50.109Z,2.60
2023-03-13T02:14:40.470Z,2.50
2023-03-13T02:17:38.443Z,2.73
2023-03-13T02:20:28.193Z,2.70
2023-03-13T02:23:10.541Z,2.77
2023-03-13T02:25:50.925Z,2.57
2023-03-13T02:28:52.699Z,2.87
2023-03-13T02:31:49.724Z,2.43
2023-03-13T02:34:41.838Z,2.13
2023-03-13T02:37:37.074Z,2.40
2023-03-13T02:40:32.994Z,2.10
2023-03-13T02:43:38.866Z,2.43
2023-03-13T02:46:32.787Z,2.60
2023-03-13T02:49:30.274Z,2.40
2023-03-13T02:52:27.842Z,2.57
2023-03-13T02:55:22.775Z,2.30
2023-03-13T02:57:54.892Z,2.53
2023-03-13T03:00:54.427Z,2.50
2023-03-13T03:03:33.492Z,2.33
2023-03-13T03:06:18.567Z,2.77
2023-03-13T03:08:59.768Z,2.53
2023-03-13T03:11:46.285Z,2.37
2023-03-13T03:14:38.170Z,2.40
2023-03-13T03:17:37.708Z,2.90
2023-03-13T03:20:29.085Z,2.70
2023-03-13T03:23:15.440Z,2.20
2023-03-13T03:25:48.523Z,2.60
2023-03-13T03:28:44.507Z,2.10
2023-03-13T03:31:33.748Z,2.13
2023-03-13T03:34:37.970Z,2.60
2023-03-13T03:37:20.242Z,2.00
2023-03-13T03:40:05.945Z,2.23
2023-03-13T03:43:10.324Z,2.13
2023-03-13T03:45:40.768Z,2.60
2023-03-13T03:48:11.088Z,1.90
2023-03-13T03:50:53.648Z,2.30
2023-03-13T03:53:37.600Z,2.20
2023-03-13T03:56:20.874Z,2.13
2023-03-13T03:59:04.274Z,2.00
2023-03-13T04:02:00.266Z,1.60
2023-03-13T04:04:42.837Z,2.10
2023-03-13T04:07:45.421Z,2.67
2023-03-13T04:10:42.284Z,1.97
2023-03-13T04:13:21.909Z,2.33
2023-03-13T04:16:08.000Z,2.00
2023-03-13T04:18:43.825Z,1.93
2023-03-13T04:21:25.114Z,2.17
2023-03-13T04:24:16.767Z,1.87
2023-03-13T04:26:58.152Z,2.10
2023-03-13T04:29:51.830Z,2.00
2023-03-13T04:32:54.293Z,1.83
2023-03-13T04:36:05.535Z,1.70
2023-03-13T04:38:58.703Z,1.50
2023-03-13T04:42:04.932Z,1.90
2023-03-13T04:44:57.696Z,1.70
2023-03-13T04:47:56.758Z,1.80
2023-03-13T04:51:07.126Z,1.70
2023-03-13T04:54:15.732Z,1.60
2023-03-13T04:57:26.880Z,1.60
2023-03-13T05:00:14.482Z,1.30
2023-03-13T05:03:02.378Z,1.40
2023-03-13T05:05:57.721Z,1.53
2023-03-13T05:08:53.368Z,1.57
2023-03-13T05:12:01.025Z,1.80
2023-03-13T05:15:01.111Z,1.50
2023-03-13T05:17:49.931Z,1.40
2023-03-13T05:20:36.492Z,1.70
2023-03-13T05:23:38.737Z,1.40
2023-03-13T05:26:45.341Z,1.60
2023-03-13T05:29:41.290Z,1.97
2023-03-13T05:32:46.135Z,1.80
2023-03-13T05:35:40.201Z,1.60
2023-03-13T05:38:33.118Z,1.50
2023-03-13T05:41:19.565Z,1.60
2023-03-13T05:44:20.696Z,1.70
2023-03-13T05:47:10.984Z,1.77
2023-03-13T05:49:55.789Z,1.80
2023-03-13T05:52:30.837Z,1.63
2023-03-13T05:55:16.443Z,1.70
2023-03-13T05:58:11.060Z,1.70
2023-03-13T06:01:02.054Z,1.40
2023-03-13T06:04:06.607Z,1.53
2023-03-13T06:07:09.522Z,1.80
2023-03-13T06:10:07.645Z,1.30
2023-03-13T06:12:41.436Z,1.53
2023-03-13T06:15:32.017Z,1.50
2023-03-13T06:18:43.677Z,1.40
2023-03-13T06:21:29.241Z,1.67
2023-03-13T06:24:35.987Z,1.50
2023-03-13T06:27:24.459Z,1.10
2023-03-13T06:30:20.961Z,1.20
2023-03-13T06:32:53.799Z,1.20
2023-03-13T06:35:53.130Z,1.10
2023-03-13T06:38:46.509Z,1.40
2023-03-13T06:41:33.495Z,1.30
2023-03-13T06:44:21.920Z,1.40
2023-03-13T06:47:10.618Z,1.17
2023-03-13T06:49:59.512Z,1.40
2023-03-13T06:52:47.218Z,1.30
2023-03-13T06:55:42.928Z,1.20
2023-03-13T06:58:53.074Z,1.20
2023-03-13T07:01:32.233Z,1.07
2023-03-13T07:04:16.815Z,1.30
2023-03-13T07:06:47.886Z,1.33
2023-03-13T07:09:32.557Z,1.20
2023-03-13T07:12:22.624Z,1.10
2023-03-13T07:15:22.254Z,0.90
2023-03-13T07:18:06.800Z,1.20
2023-03-13T07:21:05.288Z,1.30
2023-03-13T07:23:58.082Z,1.20
2023-03-13T07:27:07.186Z,0.90
2023-03-13T07:30:17.240Z,0.87
2023-03-13T07:33:14.395Z,1.33
2023-03-13T07:35:58.330Z,1.20
2023-03-13T07:38:33.663Z,1.13
2023-03-13T07:41:23.823Z,1.13
2023-03-13T07:44:10.786Z,1.13
2023-03-13T07:47:00.592Z,1.20
2023-03-13T07:49:34.175Z,1.30
2023-03-13T07:52:23.438Z,1.20
2023-03-13T07:55:06.959Z,1.50
2023-03-13T07:57:48.124Z,1.17
2023-03-13T08:00:46.134Z,1.00
2023-03-13T08:03:36.699Z,0.97
2023-03-13T08:06:41.464Z,1.40
2023-03-13T08:09:25.675Z,1.20
2023-03-13T08:11:57.213Z,1.13
2023-03-13T08:14:31.586Z,1.07
2023-03-13T08:17:16.058Z,1.43
2023-03-13T08:20:07.020Z,1.20
2023-03-13T08:22:50.873Z,1.40
2023-03-13T08:25:43.107Z,1.17
2023-03-13T08:28:31.337Z,1.30
2023-03-13T08:31:13.749Z,1.27
2023-03-13T08:33:55.641Z,1.30
2023-03-13T08:37:02.314Z,1.30
2023-03-13T08:39:58.491Z,1.47
2023-03-13T08:42:45.848Z,1.40
2023-03-13T08:45:32.796Z,1.40
2023-03-13T08:48:23.129Z,1.30
2023-03-13T08:51:09.327Z,1.50
2023-03-13T08:53:56.464Z,1.50
2023-03-13T08:56:37.125Z,1.53
2023-03-13T08:59:22.907Z,1.47
2023-03-13T09:02:08.762Z,1.50
2023-03-13T09:04:49.801Z,1.50
2023-03-13T09:07:33.529Z,1.40
2023-03-13T09:10:06.651Z,1.40
2023-03-13T09:12:58.579Z,1.60
2023-03-13T09:15:39.622Z,1.47
2023-03-13T09:18:22.488Z,1.70
2023-03-13T09:21:06.796Z,1.30
2023-03-13T09:23:44.462Z,1.73
2023-03-13T09:26:17.750Z,1.63
2023-03-13T09:29:21.248Z,1.50
2023-03-13T09:32:20.728Z,1.60
2023-03-13T09:34:59.836Z,2.00
2023-03-13T09:38:04.488Z,1.80
2023-03-13T09:40:59.680Z,1.60
2023-03-13T09:43:57.388Z,1.40
2023-03-13T09:47:05.697Z,1.60
2023-03-13T09:49:47.537Z,1.40
2023-03-13T09:52:30.059Z,1.40
2023-03-13T09:55:08.133Z,1.57
2023-03-13T09:57:51.724Z,1.30
2023-03-13T10:00:34.869Z,1.80
2023-03-13T10:03:29.478Z,1.50
2023-03-13T10:06:15.432Z,1.50
2023-03-13T10:09:28.354Z,1.43
2023-03-13T10:12:11.080Z,1.60
2023-03-13T10:15:05.754Z,1.50
2023-03-13T10:17:43.000Z,1.50
2023-03-13T10:20:56.230Z,1.50
2023-03-13T10:23:45.974Z,1.60
2023-03-13T10:26:29.590Z,1.80
2023-03-13T10:29:21.855Z,1.70
2023-03-13T10:32:03.372Z,1.87
2023-03-13T10:34:57.632Z,1.80
2023-03-13T10:38:25.827Z,1.73
2023-03-13T10:41:31.285Z,1.60
2023-03-13T10:44:16.643Z,1.70
2023-03-13T10:47:14.122Z,1.90
2023-03-13T10:50:04.514Z,1.60
2023-03-13T10:53:00.583Z,1.70
2023-03-13T10:55:46.428Z,1.80
2023-03-13T10:58:25.507Z,1.70
2023-03-13T11:01:19.198Z,1.83
2023-03-13T11:04:03.018Z,1.53
2023-03-13T11:07:00.528Z,1.77
2023-03-13T11:09:34.657Z,1.67
2023-03-13T11:12:23.515Z,1.80
2023-03-13T11:15:01.625Z,1.53
2023-03-13T11:18:00.127Z,1.80
2023-03-13T11:20:56.548Z,1.70
2023-03-13T11:23:47.645Z,1.60
2023-03-13T11:26:55.113Z,1.67
2023-03-13T11:30:00.511Z,1.60
2023-03-13T11:32:44.827Z,1.63
2023-03-13T11:35:37.631Z,2.00
2023-03-13T11:38:47.170Z,1.60
2023-03-13T11:41:50.088Z,1.80
2023-03-13T11:44:39.440Z,1.80
2023-03-13T11:47:44.146Z,1.90
2023-03-13T11:50:31.450Z,1.80
2023-03-13T11:53:50.184Z,1.60
2023-03-13T11:56:37.390Z,1.80
2023-03-13T11:59:40.318Z,2.00
2023-03-13T12:02:41.590Z,1.90
2023-03-13T12:05:20.119Z,2.00
2023-03-13T12:08:00.933Z,1.70
2023-03-13T12:10:51.901Z,1.73
2023-03-13T12:13:34.823Z,1.80
2023-03-13T12:16:21.541Z,1.50
2023-03-13T12:19:43.609Z,1.90
2023-03-13T12:22:39.571Z,2.00
2023-03-13T12:25:23.200Z,2.10
2023-03-13T12:28:16.154Z,1.63
2023-03-13T12:31:01.662Z,1.80
2023-03-13T12:33:54.819Z,1.60
2023-03-13T12:36:50.398Z,1.60
2023-03-13T12:39:38.209Z,1.70
2023-03-13T12:42:39.137Z,1.90
2023-03-13T12:45:21.968Z,1.60
2023-03-13T12:48:44.895Z,1.87
2023-03-13T12:51:42.936Z,1.77
2023-03-13T12:54:47.963Z,1.70
2023-03-13T12:58:21.605Z,1.83
2023-03-13T13:00:59.722Z,1.80
2023-03-13T13:03:52.380Z,1.80
2023-03-13T13:06:46.922Z,1.60
2023-03-13T13:09:31.259Z,1.73
2023-03-13T13:12:20.329Z,1.80
2023-03-13T13:15:26.470Z,1.70
2023-03-13T13:18:28.415Z,1.80
2023-03-13T13:21:38.727Z,1.77
2023-03-13T13:25:04.023Z,1.77
2023-03-13T13:27:53.293Z,1.80
2023-03-13T13:30:41.794Z,1.70
2023-03-13T13:33:43.142Z,1.80
2023-03-13T13:36:46.041Z,1.67
2023-03-13T13:39:50.466Z,1.67
2023-03-13T13:42:52.150Z,1.90
2023-03-13T13:45:43.215Z,2.03
2023-03-13T13:48:37.261Z,1.60
2023-03-13T13:51:29.049Z,1.50
2023-03-13T13:54:35.866Z,1.40
2023-03-13T13:57:18.416Z,1.80
2023-03-13T14:00:28.759Z,1.80
2023-03-13T14:03:23.739Z,1.50
2023-03-13T14:06:06.755Z,1.50
2023-03-13T14:08:59.806Z,1.70
2023-03-13T14:11:40.442Z,1.53
2023-03-13T14:14:21.153Z,1.50
2023-03-13T14:17:13.984Z,1.53
2023-03-13T14:20:01.321Z,1.53
2023-03-13T14:22:51.920Z,1.53
2023-03-13T14:25:26.713Z,1.90
2023-03-13T14:28:05.880Z,1.60
2023-03-13T14:31:11.106Z,1.43
2023-03-13T14:34:08.069Z,1.50
2023-03-13T14:37:01.455Z,1.50
2023-03-13T14:40:00.751Z,1.50
2023-03-13T14:42:51.843Z,1.60
2023-03-13T14:45:40.270Z,1.67
2023-03-13T14:48:35.490Z,1.63
2023-03-13T14:51:32.522Z,1.70
2023-03-13T14:54:34.381Z,1.80
2023-03-13T14:57:27.758Z,1.63
2023-03-13T15:00:48.613Z,1.50
2023-03-13T15:03:33.949Z,1.43
2023-03-13T15:06:31.813Z,1.40
2023-03-13T15:09:24.591Z,1.70
2023-03-13T15:12:08.635Z,1.73
2023-03-13T15:14:57.018Z,1.40
2023-03-13T15:17:38.095Z,1.60
2023-03-13T15:20:36.924Z,1.70
2023-03-13T15:24:03.900Z,1.70
2023-03-13T15:26:37.986Z,1.50
2023-03-13T15:29:22.489Z,1.50
2023-03-13T15:31:53.954Z,1.67
2023-03-13T15:34:50.731Z,1.53
2023-03-13T15:37:21.619Z,1.60
2023-03-13T15:40:29.719Z,1.80
2023-03-13T15:43:12.220Z,1.50
2023-03-13T15:45:55.520Z,1.30
2023-03-13T15:48:50.331Z,1.80
2023-03-13T15:51:41.234Z,1.57
2023-03-13T15:54:14.235Z,1.40
2023-03-13T15:57:14.904Z,1.87
2023-03-13T16:00:21.531Z,0.90
2023-03-13T16:03:00.381Z,0.87
2023-03-13T16:05:40.962Z,0.90
2023-03-13T16:08:37.335Z,0.83
2023-03-13T16:11:24.890Z,1.00
2023-03-13T16:14:17.017Z,1.23
2023-03-13T16:17:36.186Z,1.30
2023-03-13T16:20:22.181Z,1.20
2023-03-13T16:23:17.273Z,1.10
2023-03-13T16:26:13.809Z,1.00
2023-03-13T16:28:58.146Z,1.13
2023-03-13T16:32:11.043Z,1.27
2023-03-13T16:34:42.008Z,1.23
2023-03-13T16:37:30.442Z,1.30
2023-03-13T16:40:08.807Z,1.10
2023-03-13T16:42:41.106Z,1.30
2023-03-13T16:45:20.691Z,0.93
2023-03-13T16:48:02.454Z,1.30
2023-03-13T16:50:46.913Z,1.00
2023-03-13T16:53:30.907Z,0.90
2023-03-13T16:56:32.156Z,1.30
2023-03-13T16:59:06.955Z,1.10
2023-03-13T17:02:04.035Z,1.10
2023-03-13T17:04:52.631Z,1.10
2023-03-13T17:07:30.458Z,1.00
2023-03-13T17:10:01.851Z,1.50
2023-03-13T17:12:46.615Z,1.40
2023-03-13T17:15:41.665Z,1.30
2023-03-13T17:18:13.820Z,1.27
2023-03-13T17:21:24.599Z,1.20
2023-03-13T17:23:58.738Z,1.50
2023-03-13T17:26:36.019Z,1.20
2023-03-13T17:29:24.156Z,1.40
2023-03-13T17:32:17.086Z,1.20
2023-03-13T17:35:10.859Z,1.30
2023-03-13T17:38:00.185Z,1.40
2023-03-13T17:40:36.700Z,1.40
2023-03-13T17:43:07.508Z,1.53
2023-03-13T17:45:39.170Z,1.30
2023-03-13T17:48:28.215Z,1.93
2023-03-13T17:51:28.812Z,1.40
2023-03-13T17:54:20.513Z,1.50
2023-03-13T17:56:52.758Z,1.50
2023-03-13T17:59:41.046Z,1.80
2023-03-13T18:02:14.774Z,1.50
2023-03-13T18:04:53.994Z,1.60
2023-03-13T18:07:35.911Z,2.50
2023-03-13T18:10:32.282Z,2.50
2023-03-13T18:13:23.467Z,1.90
2023-03-13T18:16:15.432Z,1.47
2023-03-13T18:18:48.197Z,1.63
2023-03-13T18:21:26.460Z,1.60
2023-03-13T18:24:09.117Z,1.50
2023-03-13T18:27:05.670Z,1.30
2023-03-13T18:29:35.668Z,1.40
2023-03-13T18:32:09.144Z,1.40
2023-03-13T18:34:49.464Z,1.60
2023-03-13T18:37:34.585Z,1.83
2023-03-13T18:40:24.917Z,1.60
2023-03-13T18:43:19.250Z,2.00
2023-03-13T18:46:07.270Z,1.60
2023-03-13T18:49:06.902Z,1.70
2023-03-13T18:51:50.479Z,1.80
2023-03-13T18:54:44.748Z,1.50
2023-03-13T18:57:30.546Z,1.50
2023-03-13T19:00:23.573Z,1.80
2023-03-13T19:03:12.250Z,1.67
2023-03-13T19:06:00.637Z,1.70
2023-03-13T19:08:38.973Z,1.70
2023-03-13T19:11:28.168Z,1.70
2023-03-13T19:14:01.817Z,1.73
2023-03-13T19:17:18.957Z,1.73
2023-03-13T19:20:02.110Z,1.90
2023-03-13T19:23:01.333Z,1.60
2023-03-13T19:25:48.945Z,1.90
2023-03-13T19:28:29.371Z,2.03
2023-03-13T19:31:22.432Z,1.70
2023-03-13T19:34:24.987Z,1.60
2023-03-13T19:37:11.707Z,2.10
2023-03-13T19:39:58.133Z,1.80
2023-03-13T19:42:31.886Z,1.87
2023-03-13T19:45:29.757Z,1.60
2023-03-13T19:48:06.736Z,1.57
2023-03-13T19:51:29.883Z,1.60
2023-03-13T19:54:17.070Z,1.50
2023-03-13T19:57:01.760Z,1.40
2023-03-13T19:59:35.620Z,1.50
2023-03-13T20:02:32.793Z,1.40
2023-03-13T20:05:28.622Z,1.50
2023-03-13T20:08:20.012Z,1.40
2023-03-13T20:10:59.998Z,1.30
2023-03-13T20:13:44.507Z,1.40
2023-03-13T20:16:19.834Z,1.53
2023-03-13T20:18:52.638Z,1.50
2023-03-13T20:21:33.037Z,1.37
2023-03-13T20:24:25.690Z,1.80
2023-03-13T20:27:03.175Z,1.40
2023-03-13T20:30:18.793Z,1.10
2023-03-13T20:32:59.251Z,1.20
2023-03-13T20:35:56.590Z,1.47
2023-03-13T20:38:38.356Z,1.63
2023-03-13T20:41:31.543Z,1.33
2023-03-13T20:44:21.737Z,1.50
2023-03-13T20:46:52.238Z,1.47
2023-03-13T20:49:42.999Z,1.43
2023-03-13T20:52:35.978Z,1.20
2023-03-13T20:55:34.171Z,1.40
2023-03-13T20:58:22.804Z,1.13
2023-03-13T21:01:12.239Z,1.17
2023-03-13T21:03:45.427Z,1.20
2023-03-13T21:06:35.889Z,1.10
2023-03-13T21:09:37.173Z,1.40
2023-03-13T21:12:08.312Z,1.50
2023-03-13T21:15:09.837Z,1.10
2023-03-13T21:17:56.788Z,0.90
2023-03-13T21:20:49.330Z,1.00
2023-03-13T21:23:38.600Z,1.30
2023-03-13T21:26:35.905Z,1.10
2023-03-13T21:29:19.892Z,1.00
2023-03-13T21:32:17.852Z,1.37
2023-03-13T21:35:02.431Z,1.20
2023-03-13T21:37:48.947Z,1.00
2023-03-13T21:40:45.802Z,1.60
2023-03-13T21:43:33.121Z,1.13
2023-03-13T21:46:27.252Z,1.10
2023-03-13T21:49:16.198Z,1.27
2023-03-13T21:51:47.788Z,1.20
2023-03-13T21:54:36.942Z,1.10
2023-03-13T21:57:19.518Z,1.10
2023-03-13T21:59:51.087Z,1.00
2023-03-13T22:02:38.589Z,0.70
2023-03-13T22:05:39.903Z,0.97
2023-03-13T22:08:26.676Z,1.00
2023-03-13T22:11:03.919Z,1.00
2023-03-13T22:13:44.628Z,1.00
2023-03-13T22:16:27.306Z,0.90
2023-03-13T22:19:08.440Z,1.07
2023-03-13T22:21:48.363Z,1.10
2023-03-13T22:24:38.602Z,1.10
2023-03-13T22:27:40.373Z,1.00
2023-03-13T22:30:12.880Z,1.10
2023-03-13T22:33:09.666Z,0.90
2023-03-13T22:35:41.050Z,1.07
2023-03-13T22:38:39.379Z,0.80
2023-03-13T22:41:18.630Z,1.00
2023-03-13T22:44:03.934Z,1.20
2023-03-13T22:46:45.004Z,0.73
2023-03-13T22:49:35.689Z,0.80
2023-03-13T22:52:22.949Z,0.90
2023-03-13T22:55:22.003Z,0.80
2023-03-13T22:57:59.313Z,0.77
2023-03-13T23:00:38.069Z,1.00
2023-03-13T23:03:13.217Z,1.07
2023-03-13T23:05:49.675Z,0.80
2023-03-13T23:08:43.941Z,0.70
2023-03-13T23:12:21.847Z,1.03
2023-03-13T23:15:17.278Z,1.10
2023-03-13T23:17:52.555Z,1.43
2023-03-13T23:20:23.391Z,1.13
2023-03-13T23:23:03.378Z,1.00
2023-03-13T23:25:42.095Z,1.00
2023-03-13T23:28:35.410Z,1.00
2023-03-13T23:31:37.231Z,0.90
2023-03-13T23:34:11.468Z,1.20
2023-03-13T23:36:42.356Z,1.00
2023-03-13T23:39:25.129Z,0.93
2023-03-13T23:42:01.221Z,1.10
2023-03-13T23:44:51.553Z,1.07
2023-03-13T23:47:32.610Z,1.33
2023-03-13T23:50:19.892Z,1.20
2023-03-13T23:53:05.387Z,0.93
2023-03-13T23:56:02.037Z,1.00
2023-03-13T23:58:39.955Z,1.07
